PWSweather.com
Personal Weather Stations
Station Observations
GIRWX1
Presovsky Kraj, GiraltovceSK

Presovsky KrajGiraltovceSK

Lat: 49.118, Lon: 21.52

Elevation: 630

Station Type: wh1080

http://www.meteogiraltovce.wz.cz/

High Low Average
Temperature 46.4°F8.0°C 39.0°F3.9°C 42.9°F6.1°C
Dew Point 42.2°F5.7°C 35.1°F1.7°C 39.5°F4.2°C
Winds 7.8 mph 12.6 kmh Calm Calm 2.0 mph SSE3.2 kmh SSE
Wind Gusts 15.9 mph25.6 kmh -- 3.0 mph4.8 kmh
Humidity 90% 79% 88%
Pressure 29.80 in1009.1 mb 29.58 in1001.7 mb -
Precipitation 0.08 in2.0 mm - -
Hour Temp Dew Point Humidity Winds Wind Gusts Pressure Precip Precip Rate Daily Precip Total
12:00 AM 43.7°F6.5°C 41.0°F5.0°C 90% 0.9 mph N1.4 kmh N 2.2 mph3.5 kmh 29.59 in1002.0 mb 0.00 in0.0 mm 0.00 in0.0 mm 0.00 in0.0 mm
12:05 AM 43.7°F6.5°C 41.0°F5.0°C 90% 0.7 mph W1.1 kmh W 1.6 mph2.6 kmh 29.59 in1002.0 mb 0.00 in0.0 mm 0.00 in0.0 mm 0.00 in0.0 mm
12:10 AM 43.5°F6.4°C 40.8°F4.9°C 90% 1.2 mph NNE1.9 kmh NNE 2.2 mph3.5 kmh 29.58 in1001.7 mb 0.00 in0.0 mm 0.00 in0.0 mm 0.00 in0.0 mm
12:15 AM 43.2°F6.2°C 40.5°F4.7°C 90% 1.9 mph NNE3.1 kmh NNE 3.1 mph5.0 kmh 29.58 in1001.7 mb 0.00 in0.0 mm 0.00 in0.0 mm 0.00 in0.0 mm
12:20 AM 43.0°F6.1°C 40.3°F4.6°C 90% 1.3 mph NE2.1 kmh NE 2.2 mph3.5 kmh 29.59 in1002.0 mb 0.00 in0.0 mm 0.00 in0.0 mm 0.00 in0.0 mm
12:25 AM 42.8°F6.0°C 40.1°F4.5°C 90% 1.3 mph NW2.1 kmh NW 2.2 mph3.5 kmh 29.59 in1002.0 mb 0.00 in0.0 mm 0.00 in0.0 mm 0.00 in0.0 mm
12:30 AM 42.7°F5.9°C 39.9°F4.4°C 90% 1.2 mph NNW1.9 kmh NNW 2.2 mph3.5 kmh 29.59 in1002.0 mb 0.00 in0.0 mm 0.00 in0.0 mm 0.00 in0.0 mm
12:35 AM 42.4°F5.8°C 39.7°F4.3°C 90% 1.1 mph NE1.8 kmh NE 2.2 mph3.5 kmh 29.59 in1002.0 mb 0.00 in0.0 mm 0.00 in0.0 mm 0.00 in0.0 mm
12:40 AM 42.4°F5.8°C 39.7°F4.3°C 90% 0.3 mph E0.5 kmh E 1.6 mph2.6 kmh 29.59 in1002.0 mb 0.00 in0.0 mm 0.00 in0.0 mm 0.00 in0.0 mm
12:45 AM 42.3°F5.7°C 39.6°F4.2°C 90% Calm Calm -- 29.59 in1002.0 mb 0.00 in0.0 mm 0.00 in0.0 mm 0.00 in0.0 mm
12:50 AM 42.3°F5.7°C 39.5°F4.2°C 90% Calm Calm 0.7 mph1.1 kmh 29.59 in1002.0 mb 0.00 in0.0 mm 0.00 in0.0 mm 0.00 in0.0 mm
12:55 AM 42.3°F5.7°C 39.5°F4.2°C 90% Calm Calm -- 29.59 in1002.0 mb 0.00 in0.0 mm 0.00 in0.0 mm 0.00 in0.0 mm
01:00 AM 42.3°F5.7°C 39.5°F4.2°C 90% Calm Calm -- 29.60 in1002.4 mb 0.00 in0.0 mm 0.00 in0.0 mm 0.00 in0.0 mm
01:05 AM 42.3°F5.7°C 39.5°F4.2°C 90% Calm Calm 0.7 mph1.1 kmh 29.59 in1002.0 mb 0.00 in0.0 mm 0.00 in0.0 mm 0.00 in0.0 mm
01:10 AM 42.4°F5.8°C 39.7°F4.3°C 90% Calm Calm -- 29.60 in1002.4 mb 0.00 in0.0 mm 0.00 in0.0 mm 0.00 in0.0 mm
01:15 AM 42.5°F5.8°C 39.8°F4.3°C 90% 1.0 mph NE1.6 kmh NE 3.1 mph5.0 kmh 29.59 in1002.0 mb 0.00 in0.0 mm 0.00 in0.0 mm 0.00 in0.0 mm
01:20 AM 42.6°F5.9°C 39.9°F4.4°C 90% 1.9 mph NNE3.1 kmh NNE 3.1 mph5.0 kmh 29.59 in1002.0 mb 0.00 in0.0 mm 0.00 in0.0 mm 0.00 in0.0 mm
01:25 AM 42.6°F5.9°C 39.9°F4.4°C 90% 1.1 mph N1.8 kmh N 2.2 mph3.5 kmh 29.59 in1002.0 mb 0.00 in0.0 mm 0.00 in0.0 mm 0.00 in0.0 mm
01:30 AM 42.5°F5.8°C 39.8°F4.3°C 90% 0.7 mph NNE1.1 kmh NNE 1.6 mph2.6 kmh 29.59 in1002.0 mb 0.00 in0.0 mm 0.00 in0.0 mm 0.00 in0.0 mm
01:35 AM 42.4°F5.8°C 39.7°F4.3°C 90% 0.3 mph NNE0.5 kmh NNE 1.6 mph2.6 kmh 29.59 in1002.0 mb 0.00 in0.0 mm 0.00 in0.0 mm 0.00 in0.0 mm
01:40 AM 42.3°F5.7°C 39.5°F4.2°C 90% 0.6 mph NE1.0 kmh NE 1.6 mph2.6 kmh 29.59 in1002.0 mb 0.00 in0.0 mm 0.00 in0.0 mm 0.00 in0.0 mm
01:45 AM 42.2°F5.7°C 39.5°F4.2°C 90% 0.3 mph NE0.5 kmh NE 1.6 mph2.6 kmh 29.60 in1002.4 mb 0.00 in0.0 mm 0.00 in0.0 mm 0.00 in0.0 mm
01:50 AM 42.1°F5.6°C 39.4°F4.1°C 90% Calm Calm 0.7 mph1.1 kmh 29.60 in1002.4 mb 0.00 in0.0 mm 0.00 in0.0 mm 0.00 in0.0 mm
01:55 AM 42.1°F5.6°C 39.4°F4.1°C 90% 1.4 mph N2.3 kmh N 3.1 mph5.0 kmh 29.60 in1002.4 mb 0.00 in0.0 mm 0.00 in0.0 mm 0.00 in0.0 mm
02:00 AM 42.0°F5.6°C 39.3°F4.1°C 90% 2.2 mph NNW3.5 kmh NNW 3.1 mph5.0 kmh 29.60 in1002.4 mb 0.00 in0.0 mm 0.00 in0.0 mm 0.00 in0.0 mm
02:05 AM 41.9°F5.5°C 39.2°F4.0°C 90% 1.5 mph NW2.4 kmh NW 3.1 mph5.0 kmh 29.60 in1002.4 mb 0.00 in0.0 mm 0.00 in0.0 mm 0.00 in0.0 mm
02:10 AM 41.9°F5.5°C 39.2°F4.0°C 90% 0.4 mph 0.6 kmh 1.6 mph2.6 kmh 29.60 in1002.4 mb 0.00 in0.0 mm 0.00 in0.0 mm 0.00 in0.0 mm
02:15 AM 41.9°F5.5°C 39.2°F4.0°C 90% 0.4 mph ESE0.6 kmh ESE 1.6 mph2.6 kmh 29.60 in1002.4 mb 0.00 in0.0 mm 0.00 in0.0 mm 0.00 in0.0 mm
02:20 AM 41.9°F5.5°C 39.2°F4.0°C 90% 1.1 mph E1.8 kmh E 2.2 mph3.5 kmh 29.60 in1002.4 mb 0.00 in0.0 mm 0.00 in0.0 mm 0.00 in0.0 mm
02:25 AM 42.0°F5.6°C 39.3°F4.1°C 90% 0.9 mph SE1.4 kmh SE 2.2 mph3.5 kmh 29.60 in1002.4 mb 0.00 in0.0 mm 0.00 in0.0 mm 0.00 in0.0 mm
02:30 AM 42.1°F5.6°C 39.4°F4.1°C 90% 0.6 mph NNE1.0 kmh NNE 1.6 mph2.6 kmh 29.60 in1002.4 mb 0.00 in0.0 mm 0.00 in0.0 mm 0.00 in0.0 mm
02:35 AM 42.1°F5.6°C 39.4°F4.1°C 90% 0.3 mph SE0.5 kmh SE 1.6 mph2.6 kmh 29.60 in1002.4 mb 0.00 in0.0 mm 0.00 in0.0 mm 0.00 in0.0 mm
02:40 AM 42.1°F5.6°C 39.4°F4.1°C 90% 0.3 mph S0.5 kmh S 1.6 mph2.6 kmh 29.60 in1002.4 mb 0.00 in0.0 mm 0.00 in0.0 mm 0.00 in0.0 mm
02:45 AM 42.1°F5.6°C 39.4°F4.1°C 90% 0.1 mph 0.2 kmh 1.6 mph2.6 kmh 29.59 in1002.0 mb 0.00 in0.0 mm 0.00 in0.0 mm 0.00 in0.0 mm
02:50 AM 42.1°F5.6°C 39.4°F4.1°C 90% 0.7 mph N1.1 kmh N 1.6 mph2.6 kmh 29.60 in1002.4 mb 0.00 in0.0 mm 0.00 in0.0 mm 0.00 in0.0 mm
02:55 AM 42.1°F5.6°C 39.4°F4.1°C 90% 0.5 mph SW0.8 kmh SW 1.6 mph2.6 kmh 29.59 in1002.0 mb 0.00 in0.0 mm 0.00 in0.0 mm 0.00 in0.0 mm
03:00 AM 42.1°F5.6°C 39.4°F4.1°C 90% 0.5 mph S0.8 kmh S 2.2 mph3.5 kmh 29.59 in1002.0 mb 0.00 in0.0 mm 0.00 in0.0 mm 0.00 in0.0 mm
03:05 AM 42.1°F5.6°C 39.4°F4.1°C 90% Calm Calm 0.7 mph1.1 kmh 29.59 in1002.0 mb 0.00 in0.0 mm 0.00 in0.0 mm 0.00 in0.0 mm
03:10 AM 42.0°F5.6°C 39.3°F4.1°C 90% 0.9 mph 1.4 kmh 2.2 mph3.5 kmh 29.59 in1002.0 mb 0.00 in0.0 mm 0.00 in0.0 mm 0.00 in0.0 mm
03:15 AM 41.9°F5.5°C 39.2°F4.0°C 90% 1.6 mph N2.6 kmh N 2.2 mph3.5 kmh 29.59 in1002.0 mb 0.00 in0.0 mm 0.00 in0.0 mm 0.00 in0.0 mm
03:20 AM 41.7°F5.4°C 39.0°F3.9°C 90% 1.1 mph NNE1.8 kmh NNE 2.2 mph3.5 kmh 29.59 in1002.0 mb 0.00 in0.0 mm 0.00 in0.0 mm 0.00 in0.0 mm
03:25 AM 41.7°F5.4°C 38.9°F3.8°C 90% Calm Calm 0.7 mph1.1 kmh 29.60 in1002.4 mb 0.00 in0.0 mm 0.00 in0.0 mm 0.00 in0.0 mm
03:30 AM 41.5°F5.3°C 38.8°F3.8°C 90% Calm Calm -- 29.60 in1002.4 mb 0.00 in0.0 mm 0.00 in0.0 mm 0.00 in0.0 mm
03:35 AM 41.5°F5.3°C 38.8°F3.8°C 90% Calm Calm 0.7 mph1.1 kmh 29.60 in1002.4 mb 0.00 in0.0 mm 0.00 in0.0 mm 0.00 in0.0 mm
03:40 AM 41.5°F5.3°C 38.8°F3.8°C 90% Calm Calm 0.7 mph1.1 kmh 29.60 in1002.4 mb 0.00 in0.0 mm 0.00 in0.0 mm 0.00 in0.0 mm
03:45 AM 41.5°F5.3°C 38.8°F3.8°C 90% 0.8 mph NE1.3 kmh NE 1.6 mph2.6 kmh 29.59 in1002.0 mb 0.00 in0.0 mm 0.00 in0.0 mm 0.00 in0.0 mm
03:50 AM 41.5°F5.3°C 38.8°F3.8°C 90% 0.7 mph S1.1 kmh S 1.6 mph2.6 kmh 29.59 in1002.0 mb 0.00 in0.0 mm 0.00 in0.0 mm 0.00 in0.0 mm
03:55 AM 41.5°F5.3°C 38.8°F3.8°C 90% 0.3 mph SE0.5 kmh SE 1.6 mph2.6 kmh 29.60 in1002.4 mb 0.00 in0.0 mm 0.00 in0.0 mm 0.00 in0.0 mm
04:00 AM 41.5°F5.3°C 38.8°F3.8°C 90% 0.8 mph S1.3 kmh S 3.1 mph5.0 kmh 29.60 in1002.4 mb 0.00 in0.0 mm 0.00 in0.0 mm 0.00 in0.0 mm
04:05 AM 41.5°F5.3°C 38.8°F3.8°C 90% 1.6 mph SW2.6 kmh SW 3.1 mph5.0 kmh 29.60 in1002.4 mb 0.00 in0.0 mm 0.00 in0.0 mm 0.00 in0.0 mm
04:10 AM 41.5°F5.3°C 38.8°F3.8°C 90% 1.4 mph SSW2.3 kmh SSW 3.1 mph5.0 kmh 29.59 in1002.0 mb 0.00 in0.0 mm 0.00 in0.0 mm 0.00 in0.0 mm
04:15 AM 41.5°F5.3°C 38.8°F3.8°C 90% 1.0 mph SSW1.6 kmh SSW 3.1 mph5.0 kmh 29.60 in1002.4 mb 0.00 in0.0 mm 0.00 in0.0 mm 0.00 in0.0 mm
04:20 AM 41.4°F5.2°C 38.7°F3.7°C 90% 1.2 mph NE1.9 kmh NE 3.1 mph5.0 kmh 29.59 in1002.0 mb 0.00 in0.0 mm 0.00 in0.0 mm 0.00 in0.0 mm
04:25 AM 41.3°F5.2°C 38.5°F3.6°C 90% 0.3 mph SSE0.5 kmh SSE 1.6 mph2.6 kmh 29.60 in1002.4 mb 0.00 in0.0 mm 0.00 in0.0 mm 0.00 in0.0 mm
04:30 AM 41.4°F5.2°C 38.7°F3.7°C 90% 1.3 mph SW2.1 kmh SW 3.1 mph5.0 kmh 29.60 in1002.4 mb 0.00 in0.0 mm 0.00 in0.0 mm 0.00 in0.0 mm
04:35 AM 41.3°F5.2°C 38.6°F3.7°C 90% 1.7 mph SW2.7 kmh SW 3.1 mph5.0 kmh 29.60 in1002.4 mb 0.00 in0.0 mm 0.00 in0.0 mm 0.00 in0.0 mm
04:40 AM 41.2°F5.1°C 38.5°F3.6°C 90% 1.2 mph SW1.9 kmh SW 2.2 mph3.5 kmh 29.60 in1002.4 mb 0.00 in0.0 mm 0.00 in0.0 mm 0.00 in0.0 mm
04:45 AM 41.2°F5.1°C 38.5°F3.6°C 90% 0.9 mph NE1.4 kmh NE 2.2 mph3.5 kmh 29.60 in1002.4 mb 0.00 in0.0 mm 0.00 in0.0 mm 0.00 in0.0 mm
04:50 AM 41.2°F5.1°C 38.5°F3.6°C 90% 0.6 mph NW1.0 kmh NW 1.6 mph2.6 kmh 29.60 in1002.4 mb 0.00 in0.0 mm 0.00 in0.0 mm 0.00 in0.0 mm
04:55 AM 41.1°F5.1°C 38.4°F3.6°C 90% 0.6 mph S1.0 kmh S 1.6 mph2.6 kmh 29.60 in1002.4 mb 0.00 in0.0 mm 0.00 in0.0 mm 0.00 in0.0 mm
05:00 AM 41.0°F5.0°C 38.3°F3.5°C 90% 0.4 mph W0.6 kmh W 2.2 mph3.5 kmh 29.61 in1002.7 mb 0.00 in0.0 mm 0.00 in0.0 mm 0.00 in0.0 mm
05:05 AM 40.8°F4.9°C 38.1°F3.4°C 90% 0.2 mph SSE0.3 kmh SSE 1.6 mph2.6 kmh 29.61 in1002.7 mb 0.00 in0.0 mm 0.00 in0.0 mm 0.00 in0.0 mm
05:10 AM 40.9°F4.9°C 38.2°F3.4°C 90% Calm Calm -- 29.61 in1002.7 mb 0.00 in0.0 mm 0.00 in0.0 mm 0.00 in0.0 mm
05:15 AM 40.9°F4.9°C 38.2°F3.4°C 90% Calm Calm 0.7 mph1.1 kmh 29.60 in1002.4 mb 0.00 in0.0 mm 0.00 in0.0 mm 0.00 in0.0 mm
05:20 AM 41.0°F5.0°C 38.3°F3.5°C 90% Calm Calm 0.7 mph1.1 kmh 29.60 in1002.4 mb 0.00 in0.0 mm 0.00 in0.0 mm 0.00 in0.0 mm
05:25 AM 41.1°F5.1°C 38.4°F3.6°C 90% Calm Calm 0.7 mph1.1 kmh 29.60 in1002.4 mb 0.00 in0.0 mm 0.00 in0.0 mm 0.00 in0.0 mm
05:30 AM 41.2°F5.1°C 38.5°F3.6°C 90% Calm Calm 0.7 mph1.1 kmh 29.60 in1002.4 mb 0.00 in0.0 mm 0.00 in0.0 mm 0.00 in0.0 mm
05:35 AM 41.2°F5.1°C 38.5°F3.6°C 90% 1.1 mph N1.8 kmh N 2.2 mph3.5 kmh 29.61 in1002.7 mb 0.00 in0.0 mm 0.00 in0.0 mm 0.00 in0.0 mm
05:40 AM 41.2°F5.1°C 38.4°F3.6°C 90% 0.5 mph 0.8 kmh 1.6 mph2.6 kmh 29.61 in1002.7 mb 0.00 in0.0 mm 0.00 in0.0 mm 0.00 in0.0 mm
05:45 AM 41.0°F5.0°C 38.3°F3.5°C 90% Calm Calm -- 29.61 in1002.7 mb 0.00 in0.0 mm 0.00 in0.0 mm 0.00 in0.0 mm
05:50 AM 41.0°F5.0°C 38.3°F3.5°C 90% Calm Calm -- 29.61 in1002.7 mb 0.00 in0.0 mm 0.00 in0.0 mm 0.00 in0.0 mm
05:55 AM 41.0°F5.0°C 38.3°F3.5°C 90% 0.8 mph NE1.3 kmh NE 2.2 mph3.5 kmh 29.61 in1002.7 mb 0.00 in0.0 mm 0.00 in0.0 mm 0.00 in0.0 mm
06:00 AM 41.0°F5.0°C 38.3°F3.5°C 90% 0.9 mph NNE1.4 kmh NNE 2.2 mph3.5 kmh 29.61 in1002.7 mb 0.00 in0.0 mm 0.00 in0.0 mm 0.00 in0.0 mm
06:05 AM 41.0°F5.0°C 38.3°F3.5°C 90% 1.6 mph NE2.6 kmh NE 2.2 mph3.5 kmh 29.61 in1002.7 mb 0.00 in0.0 mm 0.00 in0.0 mm 0.00 in0.0 mm
06:10 AM 41.1°F5.1°C 38.4°F3.6°C 90% 0.8 mph NE1.3 kmh NE 2.2 mph3.5 kmh 29.61 in1002.7 mb 0.00 in0.0 mm 0.00 in0.0 mm 0.00 in0.0 mm
06:15 AM 41.2°F5.1°C 38.5°F3.6°C 90% 0.5 mph NE0.8 kmh NE 1.6 mph2.6 kmh 29.61 in1002.7 mb 0.00 in0.0 mm 0.00 in0.0 mm 0.00 in0.0 mm
06:20 AM 41.3°F5.2°C 38.6°F3.7°C 90% 0.9 mph NW1.4 kmh NW 3.1 mph5.0 kmh 29.61 in1002.7 mb 0.00 in0.0 mm 0.00 in0.0 mm 0.00 in0.0 mm
06:25 AM 41.4°F5.2°C 38.7°F3.7°C 90% 1.9 mph WSW3.1 kmh WSW 3.8 mph6.1 kmh 29.61 in1002.7 mb 0.00 in0.0 mm 0.00 in0.0 mm 0.00 in0.0 mm
06:30 AM 41.4°F5.2°C 38.7°F3.7°C 90% 1.7 mph SW2.7 kmh SW 3.1 mph5.0 kmh 29.61 in1002.7 mb 0.00 in0.0 mm 0.00 in0.0 mm 0.00 in0.0 mm
06:35 AM 41.4°F5.2°C 38.7°F3.7°C 90% 0.6 mph WSW1.0 kmh WSW 3.1 mph5.0 kmh 29.61 in1002.7 mb 0.00 in0.0 mm 0.00 in0.0 mm 0.00 in0.0 mm
06:40 AM 41.5°F5.3°C 38.8°F3.8°C 90% 0.3 mph WSW0.5 kmh WSW 1.6 mph2.6 kmh 29.61 in1002.7 mb 0.00 in0.0 mm 0.00 in0.0 mm 0.00 in0.0 mm
06:45 AM 41.5°F5.3°C 38.8°F3.8°C 90% Calm Calm 0.7 mph1.1 kmh 29.61 in1002.7 mb 0.00 in0.0 mm 0.00 in0.0 mm 0.00 in0.0 mm
06:50 AM 41.5°F5.3°C 38.8°F3.8°C 90% 0.2 mph W0.3 kmh W 0.7 mph1.1 kmh 29.61 in1002.7 mb 0.00 in0.0 mm 0.00 in0.0 mm 0.00 in0.0 mm
06:55 AM 41.5°F5.3°C 38.8°F3.8°C 90% 0.3 mph SW0.5 kmh SW 1.6 mph2.6 kmh 29.62 in1003.0 mb 0.00 in0.0 mm 0.00 in0.0 mm 0.00 in0.0 mm
07:00 AM 41.5°F5.3°C 38.8°F3.8°C 90% 0.3 mph SW0.5 kmh SW 1.6 mph2.6 kmh 29.61 in1002.7 mb 0.00 in0.0 mm 0.00 in0.0 mm 0.00 in0.0 mm
07:05 AM 41.5°F5.3°C 38.8°F3.8°C 90% Calm Calm -- 29.62 in1003.0 mb 0.00 in0.0 mm 0.00 in0.0 mm 0.00 in0.0 mm
07:10 AM 41.6°F5.3°C 38.9°F3.8°C 90% Calm Calm 0.7 mph1.1 kmh 29.62 in1003.0 mb 0.00 in0.0 mm 0.00 in0.0 mm 0.00 in0.0 mm
07:15 AM 41.7°F5.4°C 39.0°F3.9°C 90% Calm Calm -- 29.62 in1003.0 mb 0.00 in0.0 mm 0.00 in0.0 mm 0.00 in0.0 mm
07:20 AM 41.7°F5.4°C 39.0°F3.9°C 90% 0.1 mph E0.2 kmh E 1.6 mph2.6 kmh 29.61 in1002.7 mb 0.00 in0.0 mm 0.00 in0.0 mm 0.00 in0.0 mm
07:25 AM 41.7°F5.4°C 39.0°F3.9°C 90% Calm Calm 0.7 mph1.1 kmh 29.62 in1003.0 mb 0.00 in0.0 mm 0.00 in0.0 mm 0.00 in0.0 mm
07:30 AM 41.7°F5.4°C 39.0°F3.9°C 90% 0.6 mph S1.0 kmh S 2.2 mph3.5 kmh 29.61 in1002.7 mb 0.00 in0.0 mm 0.00 in0.0 mm 0.00 in0.0 mm
07:35 AM 41.7°F5.4°C 39.0°F3.9°C 90% 1.3 mph SSW2.1 kmh SSW 3.1 mph5.0 kmh 29.62 in1003.0 mb 0.00 in0.0 mm 0.00 in0.0 mm 0.00 in0.0 mm
07:40 AM 41.9°F5.5°C 39.2°F4.0°C 90% 1.8 mph SSW2.9 kmh SSW 3.1 mph5.0 kmh 29.62 in1003.0 mb 0.00 in0.0 mm 0.00 in0.0 mm 0.00 in0.0 mm
07:45 AM 42.0°F5.6°C 39.3°F4.1°C 90% 1.8 mph S2.9 kmh S 4.5 mph7.2 kmh 29.62 in1003.0 mb 0.00 in0.0 mm 0.00 in0.0 mm 0.00 in0.0 mm
07:50 AM 42.1°F5.6°C 39.4°F4.1°C 90% 2.9 mph S4.7 kmh S 5.4 mph8.7 kmh 29.62 in1003.0 mb 0.00 in0.0 mm 0.00 in0.0 mm 0.00 in0.0 mm
07:55 AM 42.1°F5.6°C 39.4°F4.1°C 90% 1.3 mph S2.1 kmh S 2.2 mph3.5 kmh 29.62 in1003.0 mb 0.00 in0.0 mm 0.00 in0.0 mm 0.01 in0.3 mm
08:00 AM 42.1°F5.6°C 39.4°F4.1°C 90% 2.7 mph SE4.3 kmh SE 3.8 mph6.1 kmh 29.62 in1003.0 mb 0.00 in0.0 mm 0.00 in0.0 mm 0.01 in0.3 mm
08:05 AM 42.3°F5.7°C 39.5°F4.2°C 90% 2.2 mph E3.5 kmh E 3.1 mph5.0 kmh 29.63 in1003.4 mb 0.00 in0.0 mm 0.00 in0.0 mm 0.01 in0.3 mm
08:10 AM 42.3°F5.7°C 39.5°F4.2°C 90% 2.4 mph SE3.9 kmh SE 3.8 mph6.1 kmh 29.63 in1003.4 mb 0.00 in0.0 mm 0.00 in0.0 mm 0.01 in0.3 mm
08:15 AM 42.3°F5.7°C 39.6°F4.2°C 90% 2.5 mph SSE4.0 kmh SSE 3.8 mph6.1 kmh 29.62 in1003.0 mb 0.00 in0.0 mm 0.00 in0.0 mm 0.01 in0.3 mm
08:20 AM 42.4°F5.8°C 39.7°F4.3°C 90% 2.8 mph S4.5 kmh S 4.5 mph7.2 kmh 29.63 in1003.4 mb 0.00 in0.0 mm 0.00 in0.0 mm 0.01 in0.3 mm
08:25 AM 42.4°F5.8°C 39.7°F4.3°C 90% 2.4 mph SE3.9 kmh SE 4.5 mph7.2 kmh 29.63 in1003.4 mb 0.00 in0.0 mm 0.00 in0.0 mm 0.01 in0.3 mm
08:30 AM 42.4°F5.8°C 39.7°F4.3°C 90% 3.4 mph SE5.5 kmh SE 5.4 mph8.7 kmh 29.63 in1003.4 mb 0.00 in0.0 mm 0.00 in0.0 mm 0.01 in0.3 mm
08:35 AM 42.5°F5.8°C 39.8°F4.3°C 90% 3.5 mph SE5.6 kmh SE 6.0 mph9.7 kmh 29.63 in1003.4 mb 0.00 in0.0 mm 0.00 in0.0 mm 0.01 in0.3 mm
08:40 AM 42.6°F5.9°C 39.9°F4.4°C 90% 2.2 mph S3.5 kmh S 4.5 mph7.2 kmh 29.62 in1003.0 mb 0.00 in0.0 mm 0.00 in0.0 mm 0.01 in0.3 mm
08:45 AM 42.6°F5.9°C 39.9°F4.4°C 90% 3.2 mph S5.1 kmh S 4.5 mph7.2 kmh 29.62 in1003.0 mb 0.00 in0.0 mm 0.00 in0.0 mm 0.01 in0.3 mm
08:50 AM 42.6°F5.9°C 39.9°F4.4°C 90% 3.8 mph SE6.1 kmh SE 5.4 mph8.7 kmh 29.62 in1003.0 mb 0.00 in0.0 mm 0.00 in0.0 mm 0.01 in0.3 mm
08:55 AM 42.6°F5.9°C 39.9°F4.4°C 90% 2.0 mph E3.2 kmh E 5.4 mph8.7 kmh 29.63 in1003.4 mb 0.00 in0.0 mm 0.00 in0.0 mm 0.01 in0.3 mm
09:00 AM 42.6°F5.9°C 39.9°F4.4°C 90% 1.2 mph SSW1.9 kmh SSW 2.2 mph3.5 kmh 29.63 in1003.4 mb 0.00 in0.0 mm 0.00 in0.0 mm 0.01 in0.3 mm
09:05 AM 42.6°F5.9°C 39.9°F4.4°C 90% 1.4 mph SSW2.3 kmh SSW 3.1 mph5.0 kmh 29.63 in1003.4 mb 0.00 in0.0 mm 0.00 in0.0 mm 0.01 in0.3 mm
09:10 AM 42.6°F5.9°C 39.9°F4.4°C 90% 2.8 mph SSE4.5 kmh SSE 4.5 mph7.2 kmh 29.63 in1003.4 mb 0.00 in0.0 mm 0.00 in0.0 mm 0.01 in0.3 mm
09:15 AM 42.6°F5.9°C 39.9°F4.4°C 90% 1.9 mph SSW3.1 kmh SSW 3.1 mph5.0 kmh 29.63 in1003.4 mb 0.00 in0.0 mm 0.00 in0.0 mm 0.01 in0.3 mm
09:20 AM 42.6°F5.9°C 39.9°F4.4°C 90% 1.4 mph SW2.3 kmh SW 3.8 mph6.1 kmh 29.63 in1003.4 mb 0.00 in0.0 mm 0.00 in0.0 mm 0.01 in0.3 mm
09:25 AM 42.6°F5.9°C 39.9°F4.4°C 90% 2.6 mph S4.2 kmh S 3.8 mph6.1 kmh 29.63 in1003.4 mb 0.00 in0.0 mm 0.00 in0.0 mm 0.01 in0.3 mm
09:30 AM 42.6°F5.9°C 39.9°F4.4°C 90% 3.8 mph SW6.1 kmh SW 5.4 mph8.7 kmh 29.64 in1003.7 mb 0.00 in0.0 mm 0.00 in0.0 mm 0.01 in0.3 mm
09:35 AM 42.6°F5.9°C 39.9°F4.4°C 90% 4.2 mph SW6.8 kmh SW 6.0 mph9.7 kmh 29.64 in1003.7 mb 0.00 in0.0 mm 0.00 in0.0 mm 0.01 in0.3 mm
09:40 AM 42.6°F5.9°C 39.9°F4.4°C 90% 3.9 mph SW6.3 kmh SW 6.0 mph9.7 kmh 29.64 in1003.7 mb 0.00 in0.0 mm 0.00 in0.0 mm 0.01 in0.3 mm
09:45 AM 42.8°F6.0°C 40.1°F4.5°C 90% 3.9 mph SW6.3 kmh SW 6.0 mph9.7 kmh 29.64 in1003.7 mb 0.00 in0.0 mm 0.00 in0.0 mm 0.01 in0.3 mm
09:50 AM 42.8°F6.0°C 40.1°F4.5°C 90% 3.1 mph SW5.0 kmh SW 4.5 mph7.2 kmh 29.64 in1003.7 mb 0.00 in0.0 mm 0.00 in0.0 mm 0.01 in0.3 mm
09:55 AM 42.8°F6.0°C 40.1°F4.5°C 90% 3.0 mph SW4.8 kmh SW 4.5 mph7.2 kmh 29.64 in1003.7 mb 0.00 in0.0 mm 0.00 in0.0 mm 0.01 in0.3 mm
10:00 AM 42.8°F6.0°C 40.1°F4.5°C 90% 3.7 mph SW6.0 kmh SW 5.4 mph8.7 kmh 29.64 in1003.7 mb 0.00 in0.0 mm 0.00 in0.0 mm 0.01 in0.3 mm
10:05 AM 42.8°F6.0°C 40.1°F4.5°C 90% 3.1 mph SW5.0 kmh SW 4.5 mph7.2 kmh 29.63 in1003.4 mb 0.00 in0.0 mm 0.00 in0.0 mm 0.01 in0.3 mm
10:10 AM 42.9°F6.1°C 40.2°F4.6°C 90% 3.0 mph SW4.8 kmh SW 4.5 mph7.2 kmh 29.64 in1003.7 mb 0.00 in0.0 mm 0.00 in0.0 mm 0.01 in0.3 mm
10:15 AM 43.0°F6.1°C 40.3°F4.6°C 90% 2.6 mph SW4.2 kmh SW 4.5 mph7.2 kmh 29.64 in1003.7 mb 0.00 in0.0 mm 0.00 in0.0 mm 0.01 in0.3 mm
10:20 AM 43.2°F6.2°C 40.4°F4.7°C 90% 2.0 mph WSW3.2 kmh WSW 3.8 mph6.1 kmh 29.64 in1003.7 mb 0.00 in0.0 mm 0.00 in0.0 mm 0.01 in0.3 mm
10:25 AM 43.3°F6.3°C 40.6°F4.8°C 90% 2.1 mph SW3.4 kmh SW 3.8 mph6.1 kmh 29.64 in1003.7 mb 0.00 in0.0 mm 0.00 in0.0 mm 0.01 in0.3 mm
10:30 AM 43.4°F6.3°C 40.6°F4.8°C 90% 4.1 mph SW6.6 kmh SW 6.0 mph9.7 kmh 29.64 in1003.7 mb 0.00 in0.0 mm 0.00 in0.0 mm 0.01 in0.3 mm
10:35 AM 43.5°F6.4°C 40.8°F4.9°C 90% 3.5 mph SW5.6 kmh SW 5.4 mph8.7 kmh 29.64 in1003.7 mb 0.00 in0.0 mm 0.00 in0.0 mm 0.01 in0.3 mm
10:39 AM 43.5°F6.4°C 40.8°F4.9°C 90% 4.5 mph SW7.2 kmh SW 6.0 mph9.7 kmh 29.64 in1003.7 mb 0.00 in0.0 mm 0.00 in0.0 mm 0.01 in0.3 mm
10:44 AM 43.5°F6.4°C 40.8°F4.9°C 90% 3.1 mph W5.0 kmh W 3.8 mph6.1 kmh 29.64 in1003.7 mb 0.00 in0.0 mm 0.00 in0.0 mm 0.01 in0.3 mm
10:50 AM 43.6°F6.4°C 40.8°F4.9°C 90% 3.5 mph WSW5.6 kmh WSW 4.5 mph7.2 kmh 29.64 in1003.7 mb 0.00 in0.0 mm 0.00 in0.0 mm 0.01 in0.3 mm
10:55 AM 43.7°F6.5°C 41.0°F5.0°C 90% 2.8 mph WSW4.5 kmh WSW 4.5 mph7.2 kmh 29.64 in1003.7 mb 0.00 in0.0 mm 0.00 in0.0 mm 0.01 in0.3 mm
11:00 AM 43.7°F6.5°C 41.0°F5.0°C 90% 2.9 mph W4.7 kmh W 3.8 mph6.1 kmh 29.64 in1003.7 mb 0.00 in0.0 mm 0.00 in0.0 mm 0.01 in0.3 mm
11:05 AM 43.7°F6.5°C 41.0°F5.0°C 90% 2.4 mph W3.9 kmh W 3.8 mph6.1 kmh 29.64 in1003.7 mb 0.00 in0.0 mm 0.00 in0.0 mm 0.01 in0.3 mm
11:10 AM 43.7°F6.5°C 41.0°F5.0°C 90% 2.5 mph W4.0 kmh W 4.5 mph7.2 kmh 29.64 in1003.7 mb 0.00 in0.0 mm 0.00 in0.0 mm 0.01 in0.3 mm
11:15 AM 43.7°F6.5°C 41.0°F5.0°C 90% 1.7 mph SW2.7 kmh SW 3.8 mph6.1 kmh 29.64 in1003.7 mb 0.00 in0.0 mm 0.00 in0.0 mm 0.01 in0.3 mm
11:20 AM 43.7°F6.5°C 41.0°F5.0°C 90% 1.7 mph WSW2.7 kmh WSW 3.8 mph6.1 kmh 29.64 in1003.7 mb 0.00 in0.0 mm 0.00 in0.0 mm 0.01 in0.3 mm
11:25 AM 43.8°F6.6°C 41.1°F5.1°C 90% 2.9 mph W4.7 kmh W 3.8 mph6.1 kmh 29.64 in1003.7 mb 0.00 in0.0 mm 0.00 in0.0 mm 0.01 in0.3 mm
11:30 AM 44.0°F6.7°C 41.2°F5.1°C 90% 3.0 mph WSW4.8 kmh WSW 4.5 mph7.2 kmh 29.64 in1003.7 mb 0.00 in0.0 mm 0.00 in0.0 mm 0.01 in0.3 mm
11:35 AM 44.1°F6.7°C 41.3°F5.2°C 90% 2.3 mph SW3.7 kmh SW 3.8 mph6.1 kmh 29.64 in1003.7 mb 0.00 in0.0 mm 0.00 in0.0 mm 0.01 in0.3 mm
11:40 AM 44.1°F6.7°C 41.3°F5.2°C 90% 1.9 mph WSW3.1 kmh WSW 3.8 mph6.1 kmh 29.64 in1003.7 mb 0.00 in0.0 mm 0.00 in0.0 mm 0.01 in0.3 mm
11:45 AM 44.1°F6.7°C 41.4°F5.2°C 90% 2.1 mph SW3.4 kmh SW 4.5 mph7.2 kmh 29.64 in1003.7 mb 0.00 in0.0 mm 0.00 in0.0 mm 0.01 in0.3 mm
11:50 AM 44.2°F6.8°C 41.5°F5.3°C 90% 1.9 mph SSW3.1 kmh SSW 4.5 mph7.2 kmh 29.64 in1003.7 mb 0.00 in0.0 mm 0.00 in0.0 mm 0.01 in0.3 mm
11:55 AM 44.2°F6.8°C 41.5°F5.3°C 90% 1.9 mph WSW3.1 kmh WSW 3.1 mph5.0 kmh 29.64 in1003.7 mb 0.00 in0.0 mm 0.00 in0.0 mm 0.01 in0.3 mm
12:00 PM 44.3°F6.8°C 41.5°F5.3°C 90% 2.1 mph SW3.4 kmh SW 3.8 mph6.1 kmh 29.64 in1003.7 mb 0.00 in0.0 mm 0.00 in0.0 mm 0.01 in0.3 mm
12:05 PM 44.4°F6.9°C 41.7°F5.4°C 90% 1.6 mph S2.6 kmh S 2.2 mph3.5 kmh 29.64 in1003.7 mb 0.00 in0.0 mm 0.00 in0.0 mm 0.01 in0.3 mm
12:10 PM 44.5°F6.9°C 41.7°F5.4°C 90% 2.1 mph SSW3.4 kmh SSW 4.5 mph7.2 kmh 29.64 in1003.7 mb 0.00 in0.0 mm 0.00 in0.0 mm 0.01 in0.3 mm
12:15 PM 45.0°F7.2°C 42.2°F5.7°C 90% 3.2 mph SW5.1 kmh SW 4.5 mph7.2 kmh 29.64 in1003.7 mb 0.00 in0.0 mm 0.00 in0.0 mm 0.01 in0.3 mm
12:20 PM 45.9°F7.7°C 42.1°F5.6°C 87% 2.9 mph SW4.7 kmh SW 5.4 mph8.7 kmh 29.63 in1003.4 mb 0.00 in0.0 mm 0.00 in0.0 mm 0.01 in0.3 mm
12:25 PM 46.3°F7.9°C 41.7°F5.4°C 84% 2.7 mph SSW4.3 kmh SSW 4.5 mph7.2 kmh 29.63 in1003.4 mb 0.00 in0.0 mm 0.00 in0.0 mm 0.01 in0.3 mm
12:30 PM 46.4°F8.0°C 41.5°F5.3°C 83% 3.2 mph SSW5.1 kmh SSW 4.5 mph7.2 kmh 29.63 in1003.4 mb 0.00 in0.0 mm 0.00 in0.0 mm 0.01 in0.3 mm
12:35 PM 46.4°F8.0°C 41.2°F5.1°C 82% 4.2 mph SSW6.8 kmh SSW 6.9 mph11.1 kmh 29.63 in1003.4 mb 0.00 in0.0 mm 0.00 in0.0 mm 0.01 in0.3 mm
12:40 PM 46.4°F8.0°C 41.2°F5.1°C 82% 3.9 mph SW6.3 kmh SW 6.0 mph9.7 kmh 29.63 in1003.4 mb 0.00 in0.0 mm 0.00 in0.0 mm 0.01 in0.3 mm
12:45 PM 46.4°F8.0°C 41.0°F5.0°C 81% 5.5 mph S8.9 kmh S 8.3 mph13.4 kmh 29.64 in1003.7 mb 0.00 in0.0 mm 0.00 in0.0 mm 0.01 in0.3 mm
12:50 PM 46.2°F7.9°C 40.7°F4.8°C 81% 4.5 mph S7.2 kmh S 6.0 mph9.7 kmh 29.63 in1003.4 mb 0.00 in0.0 mm 0.00 in0.0 mm 0.01 in0.3 mm
12:55 PM 46.2°F7.9°C 40.7°F4.8°C 81% 4.0 mph SW6.4 kmh SW 6.9 mph11.1 kmh 29.63 in1003.4 mb 0.00 in0.0 mm 0.00 in0.0 mm 0.01 in0.3 mm
01:00 PM 46.2°F7.9°C 40.7°F4.8°C 81% 4.3 mph SW6.9 kmh SW 6.9 mph11.1 kmh 29.63 in1003.4 mb 0.00 in0.0 mm 0.00 in0.0 mm 0.01 in0.3 mm
01:05 PM 46.3°F7.9°C 40.8°F4.9°C 81% 3.8 mph SW6.1 kmh SW 5.4 mph8.7 kmh 29.63 in1003.4 mb 0.00 in0.0 mm 0.00 in0.0 mm 0.01 in0.3 mm
01:10 PM 46.4°F8.0°C 40.9°F4.9°C 81% 5.0 mph SW8.0 kmh SW 9.8 mph15.8 kmh 29.63 in1003.4 mb 0.00 in0.0 mm 0.00 in0.0 mm 0.01 in0.3 mm
01:15 PM 46.4°F8.0°C 40.6°F4.8°C 80% 6.1 mph SW9.8 kmh SW 9.2 mph14.8 kmh 29.63 in1003.4 mb 0.00 in0.0 mm 0.00 in0.0 mm 0.01 in0.3 mm
01:20 PM 46.4°F8.0°C 40.6°F4.8°C 80% 5.5 mph SSW8.9 kmh SSW 9.8 mph15.8 kmh 29.64 in1003.7 mb 0.00 in0.0 mm 0.00 in0.0 mm 0.01 in0.3 mm
01:25 PM 46.2°F7.9°C 40.4°F4.7°C 80% 7.1 mph SSW11.4 kmh SSW 10.7 mph17.2 kmh 29.64 in1003.7 mb 0.00 in0.0 mm 0.00 in0.0 mm 0.01 in0.3 mm
01:30 PM 46.2°F7.9°C 40.4°F4.7°C 80% 5.9 mph SW9.5 kmh SW 9.2 mph14.8 kmh 29.64 in1003.7 mb 0.00 in0.0 mm 0.00 in0.0 mm 0.01 in0.3 mm
01:35 PM 46.0°F7.8°C 40.2°F4.6°C 80% 5.2 mph SSW8.4 kmh SSW 7.6 mph12.2 kmh 29.64 in1003.7 mb 0.00 in0.0 mm 0.00 in0.0 mm 0.01 in0.3 mm
01:40 PM 46.0°F7.8°C 40.2°F4.6°C 80% 3.5 mph SW5.6 kmh SW 5.4 mph8.7 kmh 29.64 in1003.7 mb 0.00 in0.0 mm 0.00 in0.0 mm 0.01 in0.3 mm
01:45 PM 46.0°F7.8°C 40.2°F4.6°C 80% 3.6 mph SW5.8 kmh SW 5.4 mph8.7 kmh 29.64 in1003.7 mb 0.00 in0.0 mm 0.00 in0.0 mm 0.01 in0.3 mm
01:50 PM 46.0°F7.8°C 40.2°F4.6°C 80% 3.0 mph WSW4.8 kmh WSW 5.4 mph8.7 kmh 29.64 in1003.7 mb 0.00 in0.0 mm 0.00 in0.0 mm 0.01 in0.3 mm
01:55 PM 46.0°F7.8°C 40.2°F4.6°C 80% 2.9 mph SW4.7 kmh SW 4.5 mph7.2 kmh 29.64 in1003.7 mb 0.00 in0.0 mm 0.00 in0.0 mm 0.01 in0.3 mm
02:00 PM 46.0°F7.8°C 40.2°F4.6°C 80% 1.3 mph WSW2.1 kmh WSW 2.2 mph3.5 kmh 29.64 in1003.7 mb 0.00 in0.0 mm 0.00 in0.0 mm 0.01 in0.3 mm
02:05 PM 46.0°F7.8°C 40.2°F4.6°C 80% 0.7 mph SW1.1 kmh SW 1.6 mph2.6 kmh 29.64 in1003.7 mb 0.00 in0.0 mm 0.00 in0.0 mm 0.01 in0.3 mm
02:10 PM 46.0°F7.8°C 40.2°F4.6°C 80% 1.7 mph SSW2.7 kmh SSW 4.5 mph7.2 kmh 29.64 in1003.7 mb 0.00 in0.0 mm 0.00 in0.0 mm 0.01 in0.3 mm
02:15 PM 46.1°F7.8°C 40.3°F4.6°C 80% 1.7 mph SSW2.7 kmh SSW 3.1 mph5.0 kmh 29.64 in1003.7 mb 0.00 in0.0 mm 0.00 in0.0 mm 0.01 in0.3 mm
02:20 PM 46.2°F7.9°C 40.4°F4.7°C 80% 2.4 mph SSW3.9 kmh SSW 5.4 mph8.7 kmh 29.64 in1003.7 mb 0.00 in0.0 mm 0.00 in0.0 mm 0.01 in0.3 mm
02:25 PM 46.4°F8.0°C 40.5°F4.7°C 80% 3.4 mph SSW5.5 kmh SSW 6.0 mph9.7 kmh 29.64 in1003.7 mb 0.00 in0.0 mm 0.00 in0.0 mm 0.01 in0.3 mm
02:30 PM 46.3°F7.9°C 40.5°F4.7°C 80% 3.9 mph SW6.3 kmh SW 5.4 mph8.7 kmh 29.64 in1003.7 mb 0.00 in0.0 mm 0.00 in0.0 mm 0.01 in0.3 mm
02:35 PM 46.2°F7.9°C 40.4°F4.7°C 80% 3.2 mph SW5.1 kmh SW 4.5 mph7.2 kmh 29.64 in1003.7 mb 0.00 in0.0 mm 0.00 in0.0 mm 0.01 in0.3 mm
02:40 PM 46.2°F7.9°C 40.3°F4.6°C 80% 3.0 mph WSW4.8 kmh WSW 5.4 mph8.7 kmh 29.64 in1003.7 mb 0.00 in0.0 mm 0.00 in0.0 mm 0.01 in0.3 mm
02:45 PM 46.0°F7.8°C 39.9°F4.4°C 79% 1.9 mph SW3.1 kmh SW 3.1 mph5.0 kmh 29.65 in1004.1 mb 0.00 in0.0 mm 0.00 in0.0 mm 0.01 in0.3 mm
02:50 PM 46.0°F7.8°C 39.9°F4.4°C 79% 1.1 mph W1.8 kmh W 2.2 mph3.5 kmh 29.64 in1003.7 mb 0.00 in0.0 mm 0.00 in0.0 mm 0.01 in0.3 mm
02:55 PM 46.0°F7.8°C 39.9°F4.4°C 79% 0.9 mph WSW1.4 kmh WSW 3.1 mph5.0 kmh 29.65 in1004.1 mb 0.00 in0.0 mm 0.00 in0.0 mm 0.01 in0.3 mm
03:00 PM 45.9°F7.7°C 39.8°F4.3°C 79% 0.6 mph WSW1.0 kmh WSW 1.6 mph2.6 kmh 29.65 in1004.1 mb 0.00 in0.0 mm 0.00 in0.0 mm 0.01 in0.3 mm
03:05 PM 45.9°F7.7°C 39.7°F4.3°C 79% 1.9 mph W3.1 kmh W 3.1 mph5.0 kmh 29.65 in1004.1 mb 0.00 in0.0 mm 0.00 in0.0 mm 0.01 in0.3 mm
03:10 PM 45.9°F7.7°C 39.7°F4.3°C 79% 1.0 mph NW1.6 kmh NW 2.2 mph3.5 kmh 29.65 in1004.1 mb 0.00 in0.0 mm 0.00 in0.0 mm 0.01 in0.3 mm
03:15 PM 45.8°F7.7°C 40.5°F4.7°C 82% 0.7 mph S1.1 kmh S 3.1 mph5.0 kmh 29.65 in1004.1 mb 0.00 in0.0 mm 0.00 in0.0 mm 0.01 in0.3 mm
03:20 PM 45.7°F7.6°C 41.1°F5.1°C 84% Calm Calm 0.7 mph1.1 kmh 29.65 in1004.1 mb 0.00 in0.0 mm 0.00 in0.0 mm 0.01 in0.3 mm
03:25 PM 45.7°F7.6°C 41.1°F5.1°C 84% 0.6 mph 1.0 kmh 2.2 mph3.5 kmh 29.65 in1004.1 mb 0.00 in0.0 mm 0.00 in0.0 mm 0.01 in0.3 mm
03:30 PM 45.6°F7.6°C 41.0°F5.0°C 84% 2.7 mph 4.3 kmh 3.8 mph6.1 kmh 29.66 in1004.4 mb 0.00 in0.0 mm 0.00 in0.0 mm 0.01 in0.3 mm
03:35 PM 45.5°F7.5°C 41.0°F5.0°C 84% 2.3 mph 3.7 kmh 3.8 mph6.1 kmh 29.65 in1004.1 mb 0.00 in0.0 mm 0.00 in0.0 mm 0.01 in0.3 mm
03:40 PM 45.5°F7.5°C 41.0°F5.0°C 84% 1.4 mph N2.3 kmh N 3.1 mph5.0 kmh 29.65 in1004.1 mb 0.00 in0.0 mm 0.00 in0.0 mm 0.01 in0.3 mm
03:45 PM 45.4°F7.4°C 40.9°F4.9°C 84% 0.2 mph NNW0.3 kmh NNW 1.6 mph2.6 kmh 29.66 in1004.4 mb 0.00 in0.0 mm 0.00 in0.0 mm 0.01 in0.3 mm
03:50 PM 45.3°F7.4°C 40.8°F4.9°C 84% 0.3 mph N0.5 kmh N 1.6 mph2.6 kmh 29.66 in1004.4 mb 0.00 in0.0 mm 0.00 in0.0 mm 0.01 in0.3 mm
03:55 PM 45.3°F7.4°C 40.8°F4.9°C 84% 0.1 mph NE0.2 kmh NE 0.7 mph1.1 kmh 29.66 in1004.4 mb 0.00 in0.0 mm 0.00 in0.0 mm 0.01 in0.3 mm
04:00 PM 45.2°F7.3°C 40.6°F4.8°C 84% 0.5 mph NE0.8 kmh NE 1.6 mph2.6 kmh 29.66 in1004.4 mb 0.00 in0.0 mm 0.00 in0.0 mm 0.01 in0.3 mm
04:05 PM 45.1°F7.3°C 40.6°F4.8°C 84% 0.7 mph 1.1 kmh 1.6 mph2.6 kmh 29.66 in1004.4 mb 0.00 in0.0 mm 0.00 in0.0 mm 0.01 in0.3 mm
04:10 PM 45.0°F7.2°C 40.4°F4.7°C 84% 1.5 mph 2.4 kmh 3.1 mph5.0 kmh 29.66 in1004.4 mb 0.00 in0.0 mm 0.00 in0.0 mm 0.01 in0.3 mm
04:15 PM 44.8°F7.1°C 40.2°F4.6°C 84% 2.1 mph 3.4 kmh 3.1 mph5.0 kmh 29.66 in1004.4 mb 0.00 in0.0 mm 0.00 in0.0 mm 0.01 in0.3 mm
04:20 PM 44.6°F7.0°C 40.3°F4.6°C 85% 1.0 mph N1.6 kmh N 2.2 mph3.5 kmh 29.66 in1004.4 mb 0.00 in0.0 mm 0.00 in0.0 mm 0.01 in0.3 mm
04:25 PM 44.6°F7.0°C 40.3°F4.6°C 85% 2.1 mph N3.4 kmh N 3.8 mph6.1 kmh 29.66 in1004.4 mb 0.00 in0.0 mm 0.00 in0.0 mm 0.01 in0.3 mm
04:30 PM 44.4°F6.9°C 40.2°F4.6°C 85% 2.2 mph N3.5 kmh N 3.8 mph6.1 kmh 29.67 in1004.7 mb 0.00 in0.0 mm 0.00 in0.0 mm 0.01 in0.3 mm
04:35 PM 44.3°F6.8°C 40.1°F4.5°C 85% 0.4 mph W0.6 kmh W 2.2 mph3.5 kmh 29.67 in1004.7 mb 0.00 in0.0 mm 0.00 in0.0 mm 0.01 in0.3 mm
04:40 PM 44.2°F6.8°C 40.0°F4.4°C 85% 0.1 mph NW0.2 kmh NW 0.7 mph1.1 kmh 29.66 in1004.4 mb 0.00 in0.0 mm 0.00 in0.0 mm 0.01 in0.3 mm
04:45 PM 44.1°F6.7°C 39.9°F4.4°C 85% 1.4 mph N2.3 kmh N 2.2 mph3.5 kmh 29.67 in1004.7 mb 0.00 in0.0 mm 0.00 in0.0 mm 0.01 in0.3 mm
04:50 PM 44.0°F6.7°C 39.8°F4.3°C 85% 1.8 mph N2.9 kmh N 3.1 mph5.0 kmh 29.67 in1004.7 mb 0.00 in0.0 mm 0.00 in0.0 mm 0.01 in0.3 mm
04:55 PM 43.9°F6.6°C 39.7°F4.3°C 85% 0.7 mph NNW1.1 kmh NNW 3.1 mph5.0 kmh 29.67 in1004.7 mb 0.00 in0.0 mm 0.00 in0.0 mm 0.01 in0.3 mm
05:00 PM 43.8°F6.6°C 39.6°F4.2°C 85% 0.7 mph 1.1 kmh 1.6 mph2.6 kmh 29.67 in1004.7 mb 0.00 in0.0 mm 0.00 in0.0 mm 0.01 in0.3 mm
05:05 PM 43.7°F6.5°C 39.5°F4.2°C 85% 2.1 mph 3.4 kmh 3.8 mph6.1 kmh 29.67 in1004.7 mb 0.00 in0.0 mm 0.00 in0.0 mm 0.01 in0.3 mm
05:10 PM 43.7°F6.5°C 39.5°F4.2°C 85% 2.9 mph 4.7 kmh 3.8 mph6.1 kmh 29.68 in1005.1 mb 0.00 in0.0 mm 0.00 in0.0 mm 0.01 in0.3 mm
05:15 PM 43.7°F6.5°C 39.7°F4.3°C 86% 2.1 mph 3.4 kmh 3.1 mph5.0 kmh 29.68 in1005.1 mb 0.00 in0.0 mm 0.00 in0.0 mm 0.01 in0.3 mm
05:20 PM 43.7°F6.5°C 39.8°F4.3°C 86% 2.3 mph N3.7 kmh N 3.8 mph6.1 kmh 29.68 in1005.1 mb 0.00 in0.0 mm 0.00 in0.0 mm 0.01 in0.3 mm
05:25 PM 43.7°F6.5°C 39.8°F4.3°C 86% 1.9 mph 3.1 kmh 3.1 mph5.0 kmh 29.68 in1005.1 mb 0.00 in0.0 mm 0.00 in0.0 mm 0.01 in0.3 mm
05:30 PM 43.7°F6.5°C 39.8°F4.3°C 86% 2.0 mph N3.2 kmh N 3.1 mph5.0 kmh 29.68 in1005.1 mb 0.00 in0.0 mm 0.00 in0.0 mm 0.01 in0.3 mm
05:35 PM 43.7°F6.5°C 39.8°F4.3°C 86% 1.9 mph N3.1 kmh N 3.1 mph5.0 kmh 29.68 in1005.1 mb 0.00 in0.0 mm 0.00 in0.0 mm 0.01 in0.3 mm
05:40 PM 43.7°F6.5°C 39.9°F4.4°C 86% 0.7 mph 1.1 kmh 2.2 mph3.5 kmh 29.68 in1005.1 mb 0.00 in0.0 mm 0.00 in0.0 mm 0.01 in0.3 mm
05:45 PM 43.7°F6.5°C 40.1°F4.5°C 87% Calm Calm 0.7 mph1.1 kmh 29.68 in1005.1 mb 0.00 in0.0 mm 0.00 in0.0 mm 0.01 in0.3 mm
05:50 PM 43.7°F6.5°C 40.1°F4.5°C 87% 0.7 mph NNE1.1 kmh NNE 1.6 mph2.6 kmh 29.68 in1005.1 mb 0.00 in0.0 mm 0.00 in0.0 mm 0.01 in0.3 mm
05:55 PM 43.7°F6.5°C 40.1°F4.5°C 87% 0.5 mph 0.8 kmh 2.2 mph3.5 kmh 29.68 in1005.1 mb 0.00 in0.0 mm 0.00 in0.0 mm 0.01 in0.3 mm
06:00 PM 43.7°F6.5°C 40.1°F4.5°C 87% 1.1 mph NNE1.8 kmh NNE 2.2 mph3.5 kmh 29.68 in1005.1 mb 0.00 in0.0 mm 0.00 in0.0 mm 0.01 in0.3 mm
06:05 PM 43.7°F6.5°C 40.1°F4.5°C 87% 1.6 mph E2.6 kmh E 2.2 mph3.5 kmh 29.68 in1005.1 mb 0.00 in0.0 mm 0.00 in0.0 mm 0.01 in0.3 mm
06:10 PM 43.6°F6.4°C 40.0°F4.4°C 87% 0.4 mph E0.6 kmh E 2.2 mph3.5 kmh 29.68 in1005.1 mb 0.00 in0.0 mm 0.00 in0.0 mm 0.01 in0.3 mm
06:15 PM 43.5°F6.4°C 39.9°F4.4°C 87% 0.1 mph NW0.2 kmh NW 1.6 mph2.6 kmh 29.68 in1005.1 mb 0.00 in0.0 mm 0.00 in0.0 mm 0.01 in0.3 mm
06:20 PM 43.5°F6.4°C 39.9°F4.4°C 87% 1.1 mph N1.8 kmh N 2.2 mph3.5 kmh 29.68 in1005.1 mb 0.00 in0.0 mm 0.00 in0.0 mm 0.01 in0.3 mm
06:25 PM 43.5°F6.4°C 39.9°F4.4°C 87% 0.5 mph ENE0.8 kmh ENE 2.2 mph3.5 kmh 29.68 in1005.1 mb 0.00 in0.0 mm 0.00 in0.0 mm 0.01 in0.3 mm
06:30 PM 43.5°F6.4°C 39.9°F4.4°C 87% 0.2 mph E0.3 kmh E 1.6 mph2.6 kmh 29.68 in1005.1 mb 0.00 in0.0 mm 0.00 in0.0 mm 0.01 in0.3 mm
06:35 PM 43.3°F6.3°C 39.7°F4.3°C 87% 0.6 mph NNE1.0 kmh NNE 2.2 mph3.5 kmh 29.68 in1005.1 mb 0.00 in0.0 mm 0.00 in0.0 mm 0.01 in0.3 mm
06:40 PM 43.3°F6.3°C 39.7°F4.3°C 87% 1.4 mph NE2.3 kmh NE 3.1 mph5.0 kmh 29.68 in1005.1 mb 0.00 in0.0 mm 0.00 in0.0 mm 0.01 in0.3 mm
06:45 PM 43.3°F6.3°C 39.7°F4.3°C 87% 2.4 mph NE3.9 kmh NE 3.8 mph6.1 kmh 29.68 in1005.1 mb 0.00 in0.0 mm 0.00 in0.0 mm 0.01 in0.3 mm
06:50 PM 43.3°F6.3°C 39.7°F4.3°C 87% 1.1 mph N1.8 kmh N 2.2 mph3.5 kmh 29.69 in1005.4 mb 0.00 in0.0 mm 0.00 in0.0 mm 0.01 in0.3 mm
06:55 PM 43.3°F6.3°C 39.7°F4.3°C 87% 1.2 mph NE1.9 kmh NE 3.1 mph5.0 kmh 29.69 in1005.4 mb 0.00 in0.0 mm 0.00 in0.0 mm 0.01 in0.3 mm
07:00 PM 43.3°F6.3°C 39.9°F4.4°C 88% 0.2 mph N0.3 kmh N 1.6 mph2.6 kmh 29.69 in1005.4 mb 0.00 in0.0 mm 0.00 in0.0 mm 0.01 in0.3 mm
07:05 PM 43.3°F6.3°C 40.0°F4.4°C 88% 1.6 mph NNE2.6 kmh NNE 3.1 mph5.0 kmh 29.69 in1005.4 mb 0.00 in0.0 mm 0.00 in0.0 mm 0.01 in0.3 mm
07:10 PM 43.2°F6.2°C 39.9°F4.4°C 88% 1.8 mph N2.9 kmh N 2.2 mph3.5 kmh 29.69 in1005.4 mb 0.00 in0.0 mm 0.00 in0.0 mm 0.01 in0.3 mm
07:15 PM 43.2°F6.2°C 39.9°F4.4°C 88% 0.7 mph NE1.1 kmh NE 2.2 mph3.5 kmh 29.69 in1005.4 mb 0.00 in0.0 mm 0.00 in0.0 mm 0.01 in0.3 mm
07:20 PM 43.2°F6.2°C 39.9°F4.4°C 88% 1.3 mph NE2.1 kmh NE 3.1 mph5.0 kmh 29.69 in1005.4 mb 0.00 in0.0 mm 0.00 in0.0 mm 0.01 in0.3 mm
07:25 PM 43.2°F6.2°C 39.9°F4.4°C 88% 1.6 mph NE2.6 kmh NE 2.2 mph3.5 kmh 29.69 in1005.4 mb 0.00 in0.0 mm 0.00 in0.0 mm 0.01 in0.3 mm
07:30 PM 43.2°F6.2°C 39.9°F4.4°C 88% 1.3 mph NE2.1 kmh NE 2.2 mph3.5 kmh 29.69 in1005.4 mb 0.00 in0.0 mm 0.00 in0.0 mm 0.01 in0.3 mm
07:35 PM 43.2°F6.2°C 39.9°F4.4°C 88% 0.8 mph N1.3 kmh N 2.2 mph3.5 kmh 29.69 in1005.4 mb 0.00 in0.0 mm 0.00 in0.0 mm 0.01 in0.3 mm
07:40 PM 43.2°F6.2°C 39.9°F4.4°C 88% 2.1 mph 3.4 kmh 3.8 mph6.1 kmh 29.70 in1005.8 mb 0.00 in0.0 mm 0.00 in0.0 mm 0.01 in0.3 mm
07:45 PM 43.0°F6.1°C 39.7°F4.3°C 88% 1.5 mph N2.4 kmh N 3.1 mph5.0 kmh 29.70 in1005.8 mb 0.00 in0.0 mm 0.00 in0.0 mm 0.01 in0.3 mm
07:50 PM 43.0°F6.1°C 39.7°F4.3°C 88% 0.3 mph NNE0.5 kmh NNE 1.6 mph2.6 kmh 29.70 in1005.8 mb 0.00 in0.0 mm 0.00 in0.0 mm 0.01 in0.3 mm
07:55 PM 43.0°F6.1°C 39.7°F4.3°C 88% 0.2 mph ENE0.3 kmh ENE 1.6 mph2.6 kmh 29.70 in1005.8 mb 0.00 in0.0 mm 0.00 in0.0 mm 0.01 in0.3 mm
08:00 PM 43.0°F6.1°C 39.7°F4.3°C 88% Calm Calm 0.7 mph1.1 kmh 29.70 in1005.8 mb 0.00 in0.0 mm 0.00 in0.0 mm 0.01 in0.3 mm
08:05 PM 42.8°F6.0°C 39.5°F4.2°C 88% 0.7 mph W1.1 kmh W 1.6 mph2.6 kmh 29.70 in1005.8 mb 0.00 in0.0 mm 0.00 in0.0 mm 0.01 in0.3 mm
08:10 PM 42.8°F6.0°C 39.5°F4.2°C 88% 1.1 mph W1.8 kmh W 2.2 mph3.5 kmh 29.70 in1005.8 mb 0.00 in0.0 mm 0.00 in0.0 mm 0.01 in0.3 mm
08:15 PM 42.8°F6.0°C 39.5°F4.2°C 88% 2.1 mph NW3.4 kmh NW 3.1 mph5.0 kmh 29.70 in1005.8 mb 0.00 in0.0 mm 0.00 in0.0 mm 0.01 in0.3 mm
08:20 PM 42.9°F6.1°C 39.6°F4.2°C 88% 1.6 mph NNE2.6 kmh NNE 2.2 mph3.5 kmh 29.71 in1006.1 mb 0.00 in0.0 mm 0.00 in0.0 mm 0.01 in0.3 mm
08:25 PM 43.0°F6.1°C 39.7°F4.3°C 88% 1.3 mph E2.1 kmh E 3.1 mph5.0 kmh 29.71 in1006.1 mb 0.00 in0.0 mm 0.00 in0.0 mm 0.01 in0.3 mm
08:30 PM 43.0°F6.1°C 39.7°F4.3°C 88% 1.6 mph E2.6 kmh E 3.1 mph5.0 kmh 29.71 in1006.1 mb 0.00 in0.0 mm 0.00 in0.0 mm 0.01 in0.3 mm
08:35 PM 43.0°F6.1°C 39.8°F4.3°C 88% 1.9 mph NE3.1 kmh NE 3.1 mph5.0 kmh 29.71 in1006.1 mb 0.00 in0.0 mm 0.00 in0.0 mm 0.01 in0.3 mm
08:40 PM 43.0°F6.1°C 40.0°F4.4°C 89% 0.6 mph NW1.0 kmh NW 1.6 mph2.6 kmh 29.71 in1006.1 mb 0.00 in0.0 mm 0.00 in0.0 mm 0.01 in0.3 mm
08:45 PM 43.2°F6.2°C 40.1°F4.5°C 89% 0.9 mph WNW1.4 kmh WNW 1.6 mph2.6 kmh 29.71 in1006.1 mb 0.01 in0.3 mm 0.12 in3.0 mm 0.02 in0.5 mm
08:50 PM 43.2°F6.2°C 40.1°F4.5°C 89% 1.9 mph NW3.1 kmh NW 3.8 mph6.1 kmh 29.71 in1006.1 mb 0.01 in0.3 mm 0.00 in0.0 mm 0.02 in0.5 mm
08:55 PM 43.2°F6.2°C 40.1°F4.5°C 89% 0.5 mph ESE0.8 kmh ESE 2.2 mph3.5 kmh 29.72 in1006.4 mb 0.01 in0.3 mm 0.00 in0.0 mm 0.02 in0.5 mm
09:00 PM 43.2°F6.2°C 40.1°F4.5°C 89% 1.0 mph SW1.6 kmh SW 2.2 mph3.5 kmh 29.72 in1006.4 mb 0.01 in0.3 mm 0.00 in0.0 mm 0.02 in0.5 mm
09:05 PM 43.2°F6.2°C 40.2°F4.6°C 89% 2.6 mph WNW4.2 kmh WNW 7.6 mph12.2 kmh 29.73 in1006.8 mb 0.01 in0.3 mm 0.00 in0.0 mm 0.02 in0.5 mm
09:10 PM 43.3°F6.3°C 40.3°F4.6°C 89% 6.7 mph N10.8 kmh N 8.3 mph13.4 kmh 29.74 in1007.1 mb 0.02 in0.5 mm 0.12 in3.0 mm 0.03 in0.8 mm
09:15 PM 43.4°F6.3°C 40.4°F4.7°C 89% 5.6 mph NNE9.0 kmh NNE 11.4 mph18.3 kmh 29.75 in1007.5 mb 0.06 in1.5 mm 0.48 in12.2 mm 0.06 in1.5 mm
09:20 PM 43.5°F6.4°C 40.4°F4.7°C 89% 7.8 mph NNE12.6 kmh NNE 15.9 mph25.6 kmh 29.75 in1007.5 mb 0.07 in1.8 mm 0.12 in3.0 mm 0.07 in1.8 mm
09:25 PM 43.2°F6.2°C 40.2°F4.6°C 89% 6.3 mph N10.1 kmh N 13.6 mph21.9 kmh 29.76 in1007.8 mb 0.07 in1.8 mm 0.00 in0.0 mm 0.08 in2.0 mm
09:30 PM 42.9°F6.1°C 39.9°F4.4°C 89% 5.7 mph NE9.2 kmh NE 13.6 mph21.9 kmh 29.76 in1007.8 mb 0.07 in1.8 mm 0.00 in0.0 mm 0.08 in2.0 mm
09:35 PM 42.6°F5.9°C 39.6°F4.2°C 89% 2.7 mph NE4.3 kmh NE 6.0 mph9.7 kmh 29.77 in1008.1 mb 0.07 in1.8 mm 0.00 in0.0 mm 0.08 in2.0 mm
09:40 PM 42.1°F5.6°C 39.0°F3.9°C 89% 6.6 mph N10.6 kmh N 11.4 mph18.3 kmh 29.77 in1008.1 mb 0.07 in1.8 mm 0.00 in0.0 mm 0.08 in2.0 mm
09:45 PM 41.7°F5.4°C 38.4°F3.6°C 88% 5.0 mph NNE8.0 kmh NNE 9.2 mph14.8 kmh 29.77 in1008.1 mb 0.07 in1.8 mm 0.00 in0.0 mm 0.08 in2.0 mm
09:50 PM 41.4°F5.2°C 38.1°F3.4°C 88% 3.5 mph WNW5.6 kmh WNW 7.6 mph12.2 kmh 29.77 in1008.1 mb 0.07 in1.8 mm 0.00 in0.0 mm 0.08 in2.0 mm
09:55 PM 41.1°F5.1°C 37.8°F3.2°C 88% 3.0 mph NNE4.8 kmh NNE 6.0 mph9.7 kmh 29.78 in1008.5 mb 0.07 in1.8 mm 0.00 in0.0 mm 0.08 in2.0 mm
10:00 PM 40.9°F4.9°C 37.4°F3.0°C 87% 3.1 mph NE5.0 kmh NE 5.4 mph8.7 kmh 29.78 in1008.5 mb 0.07 in1.8 mm 0.00 in0.0 mm 0.08 in2.0 mm
10:05 PM 40.8°F4.9°C 37.3°F2.9°C 87% 3.8 mph E6.1 kmh E 4.5 mph7.2 kmh 29.78 in1008.5 mb 0.07 in1.8 mm 0.00 in0.0 mm 0.08 in2.0 mm
10:10 PM 40.6°F4.8°C 37.0°F2.8°C 87% 2.7 mph NE4.3 kmh NE 4.5 mph7.2 kmh 29.78 in1008.5 mb 0.06 in1.5 mm 0.00 in0.0 mm 0.08 in2.0 mm
10:15 PM 40.3°F4.6°C 36.7°F2.6°C 87% 3.0 mph NE4.8 kmh NE 4.5 mph7.2 kmh 29.78 in1008.5 mb 0.02 in0.5 mm 0.00 in0.0 mm 0.08 in2.0 mm
10:20 PM 40.2°F4.6°C 36.6°F2.6°C 87% 1.4 mph NE2.3 kmh NE 3.1 mph5.0 kmh 29.77 in1008.1 mb 0.01 in0.3 mm 0.00 in0.0 mm 0.08 in2.0 mm
10:25 PM 40.1°F4.5°C 36.5°F2.5°C 87% 2.2 mph NE3.5 kmh NE 3.8 mph6.1 kmh 29.78 in1008.5 mb 0.00 in0.0 mm 0.00 in0.0 mm 0.08 in2.0 mm
10:30 PM 40.0°F4.4°C 36.2°F2.3°C 86% 0.3 mph NE0.5 kmh NE 1.6 mph2.6 kmh 29.78 in1008.5 mb 0.00 in0.0 mm 0.00 in0.0 mm 0.08 in2.0 mm
10:35 PM 39.9°F4.4°C 36.1°F2.3°C 86% Calm Calm 0.7 mph1.1 kmh 29.79 in1008.8 mb 0.00 in0.0 mm 0.00 in0.0 mm 0.08 in2.0 mm
10:40 PM 39.9°F4.4°C 36.1°F2.3°C 86% 0.3 mph SSW0.5 kmh SSW 1.6 mph2.6 kmh 29.79 in1008.8 mb 0.00 in0.0 mm 0.00 in0.0 mm 0.08 in2.0 mm
10:45 PM 39.9°F4.4°C 36.1°F2.3°C 86% 0.2 mph S0.3 kmh S 1.6 mph2.6 kmh 29.79 in1008.8 mb 0.00 in0.0 mm 0.00 in0.0 mm 0.08 in2.0 mm
10:50 PM 39.7°F4.3°C 35.9°F2.2°C 86% 0.2 mph SW0.3 kmh SW 0.7 mph1.1 kmh 29.79 in1008.8 mb 0.00 in0.0 mm 0.00 in0.0 mm 0.08 in2.0 mm
10:55 PM 39.7°F4.3°C 35.9°F2.2°C 86% Calm Calm 0.7 mph1.1 kmh 29.79 in1008.8 mb 0.00 in0.0 mm 0.00 in0.0 mm 0.08 in2.0 mm
11:00 PM 39.6°F4.2°C 35.8°F2.1°C 86% 0.3 mph SW0.5 kmh SW 1.6 mph2.6 kmh 29.80 in1009.1 mb 0.00 in0.0 mm 0.00 in0.0 mm 0.08 in2.0 mm
11:05 PM 39.6°F4.2°C 35.7°F2.1°C 86% Calm Calm -- 29.80 in1009.1 mb 0.00 in0.0 mm 0.00 in0.0 mm 0.08 in2.0 mm
11:10 PM 39.5°F4.2°C 35.6°F2.0°C 86% Calm Calm -- 29.80 in1009.1 mb 0.00 in0.0 mm 0.00 in0.0 mm 0.08 in2.0 mm
11:15 PM 39.4°F4.1°C 35.5°F1.9°C 86% Calm Calm -- 29.80 in1009.1 mb 0.00 in0.0 mm 0.00 in0.0 mm 0.08 in2.0 mm
11:20 PM 39.4°F4.1°C 35.3°F1.8°C 85% 0.5 mph 0.8 kmh 2.2 mph3.5 kmh 29.80 in1009.1 mb 0.00 in0.0 mm 0.00 in0.0 mm 0.08 in2.0 mm
11:25 PM 39.4°F4.1°C 35.3°F1.8°C 85% 0.4 mph 0.6 kmh 1.6 mph2.6 kmh 29.80 in1009.1 mb 0.00 in0.0 mm 0.00 in0.0 mm 0.08 in2.0 mm
11:30 PM 39.4°F4.1°C 35.3°F1.8°C 85% 0.3 mph ENE0.5 kmh ENE 1.6 mph2.6 kmh 29.80 in1009.1 mb 0.00 in0.0 mm 0.00 in0.0 mm 0.08 in2.0 mm
11:35 PM 39.3°F4.1°C 35.3°F1.8°C 86% 0.4 mph N0.6 kmh N 2.2 mph3.5 kmh 29.80 in1009.1 mb 0.00 in0.0 mm 0.00 in0.0 mm 0.08 in2.0 mm
11:40 PM 39.2°F4.0°C 35.4°F1.9°C 86% 0.3 mph 0.5 kmh 0.7 mph1.1 kmh 29.80 in1009.1 mb 0.00 in0.0 mm 0.00 in0.0 mm 0.08 in2.0 mm
11:45 PM 39.2°F4.0°C 35.4°F1.9°C 86% 1.1 mph 1.8 kmh 2.2 mph3.5 kmh 29.80 in1009.1 mb 0.00 in0.0 mm 0.00 in0.0 mm 0.08 in2.0 mm
11:50 PM 39.1°F3.9°C 35.3°F1.8°C 86% 1.2 mph 1.9 kmh 2.2 mph3.5 kmh 29.80 in1009.1 mb 0.00 in0.0 mm 0.00 in0.0 mm 0.08 in2.0 mm
11:55 PM 39.0°F3.9°C 35.1°F1.7°C 86% 1.0 mph 1.6 kmh 2.2 mph3.5 kmh 29.80 in1009.1 mb 0.00 in0.0 mm 0.00 in0.0 mm 0.08 in2.0 mm